createdAt,value
2022-12-11T00:01:22.635Z,0.00
2022-12-11T00:04:09.167Z,0.00
2022-12-11T00:06:55.679Z,0.00
2022-12-11T00:09:42.211Z,0.00
2022-12-11T00:12:28.733Z,-0.10
2022-12-11T00:15:15.286Z,-0.10
2022-12-11T00:18:01.807Z,-0.10
2022-12-11T00:20:48.322Z,-0.10
2022-12-11T00:23:34.841Z,-0.10
2022-12-11T00:26:21.383Z,-0.10
2022-12-11T00:29:07.895Z,-0.10
2022-12-11T00:31:54.482Z,-0.10
2022-12-11T00:34:42.040Z,-0.10
2022-12-11T00:37:28.613Z,-0.10
2022-12-11T00:40:15.193Z,-0.10
2022-12-11T00:43:01.743Z,-0.10
2022-12-11T00:45:48.318Z,-0.10
2022-12-11T00:48:34.913Z,-0.20
2022-12-11T00:51:21.425Z,-0.20
2022-12-11T00:54:08.123Z,-0.20
2022-12-11T00:56:54.630Z,-0.30
2022-12-11T00:59:41.193Z,-0.30
2022-12-11T01:02:27.810Z,-0.30
2022-12-11T01:05:14.323Z,-0.30
2022-12-11T01:08:00.906Z,-0.40
2022-12-11T01:10:47.576Z,-0.40
2022-12-11T01:13:34.171Z,-0.40
2022-12-11T01:16:20.800Z,-0.40
2022-12-11T01:19:07.404Z,-0.40
2022-12-11T01:21:54.942Z,-0.40
2022-12-11T01:24:41.472Z,-0.40
2022-12-11T01:27:28.028Z,-0.40
2022-12-11T01:30:14.534Z,-0.40
2022-12-11T01:33:01.063Z,-0.50
2022-12-11T01:35:47.581Z,-0.50
2022-12-11T01:38:34.152Z,-0.50
2022-12-11T01:41:20.664Z,-0.50
2022-12-11T01:44:07.217Z,-0.50
2022-12-11T01:46:53.687Z,-0.50
2022-12-11T01:49:40.236Z,-0.50
2022-12-11T01:52:26.744Z,-0.50
2022-12-11T01:55:13.332Z,-0.50
2022-12-11T01:57:59.848Z,-0.50
2022-12-11T02:00:46.388Z,-0.50
2022-12-11T02:03:32.895Z,-0.60
2022-12-11T02:06:19.443Z,-0.60
2022-12-11T02:09:06.979Z,-0.50
2022-12-11T02:11:53.472Z,-0.60
2022-12-11T02:14:39.983Z,-0.60
2022-12-11T02:17:27.525Z,-0.60
2022-12-11T02:20:14.040Z,-0.60
2022-12-11T02:23:00.575Z,-0.70
2022-12-11T02:25:47.086Z,-0.70
2022-12-11T02:28:33.591Z,-0.60
2022-12-11T02:31:20.137Z,-0.70
2022-12-11T02:34:06.708Z,-0.70
2022-12-11T02:36:53.239Z,-0.70
2022-12-11T02:39:39.712Z,-0.70
2022-12-11T02:42:26.230Z,-0.70
2022-12-11T02:45:12.944Z,-0.70
2022-12-11T02:47:59.664Z,-0.70
2022-12-11T02:50:46.179Z,-0.70
2022-12-11T02:53:32.706Z,-0.80
2022-12-11T02:56:19.212Z,-0.80
2022-12-11T02:59:05.720Z,-0.80
2022-12-11T03:01:52.260Z,-0.80
2022-12-11T03:04:38.772Z,-0.90
2022-12-11T03:07:25.320Z,-0.90
2022-12-11T03:10:11.835Z,-0.90
2022-12-11T03:12:58.394Z,-0.90
2022-12-11T03:15:44.913Z,-0.90
2022-12-11T03:18:31.452Z,-0.90
2022-12-11T03:21:17.969Z,-1.00
2022-12-11T03:24:04.509Z,-1.00
2022-12-11T03:26:56.175Z,-1.00
2022-12-11T03:29:43.134Z,-1.00
2022-12-11T03:32:29.646Z,-1.10
2022-12-11T03:35:16.312Z,-1.10
2022-12-11T03:38:02.906Z,-1.20
2022-12-11T03:40:49.447Z,-1.20
2022-12-11T03:43:35.947Z,-1.30
2022-12-11T03:46:22.491Z,-1.30
2022-12-11T03:49:10.026Z,-1.30
2022-12-11T03:51:56.578Z,-1.30
2022-12-11T03:54:43.096Z,-1.30
2022-12-11T03:57:29.584Z,-1.20
2022-12-11T04:00:16.210Z,-1.20
2022-12-11T04:03:06.957Z,-1.20
2022-12-11T04:05:57.827Z,-1.20
2022-12-11T04:08:44.338Z,-1.20
2022-12-11T04:11:30.875Z,-1.20
2022-12-11T04:14:17.391Z,-1.20
2022-12-11T04:17:03.943Z,-1.20
2022-12-11T04:19:51.624Z,-1.10
2022-12-11T04:22:38.143Z,-1.10
2022-12-11T04:25:24.812Z,-1.10
2022-12-11T04:28:11.368Z,-1.10
2022-12-11T04:30:57.894Z,-1.00
2022-12-11T04:33:44.463Z,-1.00
2022-12-11T04:36:30.972Z,-1.10
2022-12-11T04:39:17.516Z,-1.10
2022-12-11T04:42:04.021Z,-1.10
2022-12-11T04:44:50.532Z,-1.10
2022-12-11T04:47:37.038Z,-1.10
2022-12-11T04:50:23.570Z,-1.10
2022-12-11T04:53:10.092Z,-1.00
2022-12-11T04:55:56.604Z,-1.00
2022-12-11T04:58:43.157Z,-0.90
2022-12-11T05:01:29.862Z,-0.90
2022-12-11T05:04:16.439Z,-0.90
2022-12-11T05:07:02.958Z,-0.80
2022-12-11T05:09:49.512Z,-0.80
2022-12-11T05:12:36.035Z,-0.80
2022-12-11T05:15:22.560Z,-0.80
2022-12-11T05:18:09.073Z,-0.80
2022-12-11T05:20:55.603Z,-0.80
2022-12-11T05:23:42.103Z,-0.80
2022-12-11T05:26:28.704Z,-0.80
2022-12-11T05:29:15.213Z,-0.80
2022-12-11T05:32:01.747Z,-0.80
2022-12-11T05:34:48.255Z,-0.80
2022-12-11T05:37:34.776Z,-0.80
2022-12-11T05:40:21.327Z,-0.80
2022-12-11T05:43:07.868Z,-0.80
2022-12-11T05:45:54.410Z,-0.80
2022-12-11T05:48:40.934Z,-0.80
2022-12-11T05:51:27.479Z,-0.80
2022-12-11T05:54:14.008Z,-0.90
2022-12-11T05:57:00.540Z,-0.90
2022-12-11T05:59:47.050Z,-1.00
2022-12-11T06:02:33.630Z,-0.90
2022-12-11T06:05:20.195Z,-0.90
2022-12-11T06:08:06.762Z,-1.00
2022-12-11T06:10:53.295Z,-1.00
2022-12-11T06:13:39.844Z,-1.10
2022-12-11T06:16:26.415Z,-1.20
2022-12-11T06:19:12.990Z,-1.10
2022-12-11T06:21:59.547Z,-1.20
2022-12-11T06:24:46.047Z,-1.20
2022-12-11T06:27:32.579Z,-1.20
2022-12-11T06:30:19.088Z,-1.20
2022-12-11T06:33:05.628Z,-1.20
2022-12-11T06:35:52.104Z,-1.20
2022-12-11T06:38:38.643Z,-1.20
2022-12-11T06:41:25.158Z,-1.20
2022-12-11T06:44:11.691Z,-1.20
2022-12-11T06:46:58.223Z,-1.20
2022-12-11T06:49:44.770Z,-1.20
2022-12-11T06:52:31.389Z,-1.10
2022-12-11T06:55:17.928Z,-1.10
2022-12-11T06:58:04.455Z,-1.10
2022-12-11T07:00:51.254Z,-1.10
2022-12-11T07:03:37.833Z,-1.00
2022-12-11T07:06:24.375Z,-1.10
2022-12-11T07:09:10.884Z,-1.00
2022-12-11T07:11:57.459Z,-1.00
2022-12-11T07:14:43.972Z,-1.00
2022-12-11T07:17:30.522Z,-1.10
2022-12-11T07:20:17.094Z,-1.10
2022-12-11T07:23:03.604Z,-1.10
2022-12-11T07:25:50.104Z,-1.10
2022-12-11T07:28:36.605Z,-1.10
2022-12-11T07:31:23.251Z,-1.10
2022-12-11T07:34:09.864Z,-1.10
2022-12-11T07:36:56.375Z,-1.20
2022-12-11T07:39:42.919Z,-1.20
2022-12-11T07:42:29.428Z,-1.10
2022-12-11T07:45:15.948Z,-1.20
2022-12-11T07:48:02.491Z,-1.20
2022-12-11T07:50:49.022Z,-1.10
2022-12-11T07:53:35.572Z,-1.00
2022-12-11T07:56:22.080Z,-1.00
2022-12-11T07:59:08.651Z,-1.00
2022-12-11T08:01:55.164Z,-1.00
2022-12-11T08:04:41.736Z,-1.00
2022-12-11T08:07:28.247Z,-1.00
2022-12-11T08:10:14.793Z,-1.00
2022-12-11T08:13:01.313Z,-1.10
2022-12-11T08:15:47.863Z,-1.00
2022-12-11T08:18:34.379Z,-0.90
2022-12-11T08:21:20.899Z,-0.80
2022-12-11T08:24:07.424Z,-0.80
2022-12-11T08:26:53.972Z,-0.70
2022-12-11T08:29:40.603Z,-0.80
2022-12-11T08:32:27.098Z,-0.80
2022-12-11T08:35:13.706Z,-1.10
2022-12-11T08:38:00.307Z,-1.10
2022-12-11T08:40:46.829Z,-1.10
2022-12-11T08:43:33.365Z,-1.10
2022-12-11T08:46:19.908Z,-1.20
2022-12-11T08:49:06.495Z,-1.20
2022-12-11T08:51:52.999Z,-1.20
2022-12-11T08:54:39.630Z,-1.30
2022-12-11T08:57:26.147Z,-1.40
2022-12-11T09:00:12.687Z,-1.40
2022-12-11T09:02:59.220Z,-1.50
2022-12-11T09:05:45.740Z,-1.60
2022-12-11T09:08:32.319Z,-1.60
2022-12-11T09:11:18.922Z,-1.70
2022-12-11T09:14:07.922Z,-1.80
2022-12-11T09:16:54.801Z,-1.70
2022-12-11T09:19:41.291Z,-1.70
2022-12-11T09:22:27.844Z,-1.70
2022-12-11T09:25:14.360Z,-1.60
2022-12-11T09:28:00.891Z,-1.60
2022-12-11T09:30:47.435Z,-1.50
2022-12-11T09:33:33.962Z,-1.40
2022-12-11T09:36:20.557Z,-1.40
2022-12-11T09:39:07.158Z,-1.50
2022-12-11T09:41:53.676Z,-1.40
2022-12-11T09:44:40.194Z,-1.30
2022-12-11T09:47:26.750Z,-1.20
2022-12-11T09:50:13.229Z,-1.10
2022-12-11T09:52:59.717Z,-1.00
2022-12-11T09:55:46.251Z,-0.90
2022-12-11T09:58:32.758Z,-0.90
2022-12-11T10:01:19.366Z,-0.80
2022-12-11T10:04:05.893Z,-0.80
2022-12-11T10:06:52.412Z,-0.90
2022-12-11T10:09:38.966Z,-1.00
2022-12-11T10:12:25.477Z,-1.10
2022-12-11T10:15:12.429Z,-1.10
2022-12-11T10:18:04.655Z,-1.20
2022-12-11T10:20:51.749Z,-1.20
2022-12-11T10:23:38.296Z,-1.60
2022-12-11T10:26:24.807Z,-1.70
2022-12-11T10:29:12.355Z,-1.70
2022-12-11T10:31:58.869Z,-1.80
2022-12-11T10:34:45.412Z,-1.70
2022-12-11T10:37:31.916Z,-1.50
2022-12-11T10:40:18.447Z,-1.40
2022-12-11T10:43:04.955Z,-1.40
2022-12-11T10:45:51.449Z,-1.20
2022-12-11T10:48:42.536Z,-1.20
2022-12-11T10:51:31.841Z,-1.20
2022-12-11T10:54:18.350Z,-1.20
2022-12-11T10:57:04.906Z,-1.20
2022-12-11T10:59:51.433Z,-1.30
2022-12-11T11:02:38.024Z,-1.30
2022-12-11T11:05:24.599Z,-1.30
2022-12-11T11:08:11.162Z,-1.30
2022-12-11T11:10:57.693Z,-1.30
2022-12-11T11:13:44.240Z,-1.40
2022-12-11T11:16:30.784Z,-1.30
2022-12-11T11:19:17.618Z,-1.50
2022-12-11T11:22:04.131Z,-1.50
2022-12-11T11:24:50.703Z,-1.40
2022-12-11T11:27:37.239Z,-1.30
2022-12-11T11:30:23.796Z,-1.30
2022-12-11T11:33:10.324Z,-1.20
2022-12-11T11:35:56.869Z,-1.20
2022-12-11T11:38:43.336Z,-1.30
2022-12-11T11:41:29.866Z,-1.30
2022-12-11T11:44:16.368Z,-1.30
2022-12-11T11:47:02.900Z,-1.30
2022-12-11T11:49:49.441Z,-1.40
2022-12-11T11:52:36.084Z,-1.30
2022-12-11T11:55:23.113Z,-1.30
2022-12-11T11:58:09.892Z,-1.30
2022-12-11T12:00:56.413Z,-1.20
2022-12-11T12:03:42.940Z,-1.10
2022-12-11T12:06:29.480Z,-1.10
2022-12-11T12:09:16.034Z,-1.10
2022-12-11T12:12:02.539Z,-1.20
2022-12-11T12:14:52.860Z,-1.10
2022-12-11T12:17:39.492Z,-1.10
2022-12-11T12:20:26.032Z,-1.00
2022-12-11T12:23:12.576Z,-1.00
2022-12-11T12:25:59.091Z,-1.00
2022-12-11T12:28:45.704Z,-1.10
2022-12-11T12:31:32.558Z,-1.10
2022-12-11T12:34:19.155Z,-1.10
2022-12-11T12:37:05.658Z,-1.20
2022-12-11T12:39:52.226Z,-1.10
2022-12-11T12:42:38.762Z,-1.10
2022-12-11T12:45:25.320Z,-1.00
2022-12-11T12:48:11.889Z,-1.10
2022-12-11T12:50:58.395Z,-1.10
2022-12-11T12:53:44.935Z,-1.20
2022-12-11T12:56:31.461Z,-1.20
2022-12-11T12:59:18.119Z,-1.20
2022-12-11T13:02:04.673Z,-1.20
2022-12-11T13:04:58.480Z,-1.20
2022-12-11T13:07:47.653Z,-1.20
2022-12-11T13:10:36.302Z,-1.20
2022-12-11T13:13:22.854Z,-1.20
2022-12-11T13:16:09.451Z,-1.30
2022-12-11T13:18:55.954Z,-1.30
2022-12-11T13:21:42.671Z,-1.20
2022-12-11T13:24:29.178Z,-1.20
2022-12-11T13:27:15.725Z,-1.20
2022-12-11T13:30:02.240Z,-1.30
2022-12-11T13:32:48.939Z,-1.30
2022-12-11T13:35:35.468Z,-1.30
2022-12-11T13:38:22.007Z,-1.30
2022-12-11T13:41:08.524Z,-1.30
2022-12-11T13:43:55.072Z,-1.30
2022-12-11T13:46:41.574Z,-1.40
2022-12-11T13:49:28.136Z,-1.50
2022-12-11T13:52:14.640Z,-1.50
2022-12-11T13:55:01.225Z,-1.50
2022-12-11T13:57:47.778Z,-1.50
2022-12-11T14:00:34.322Z,-1.60
2022-12-11T14:03:20.859Z,-1.60
2022-12-11T14:06:07.367Z,-1.60
2022-12-11T14:08:53.919Z,-1.60
2022-12-11T14:11:40.431Z,-1.60
2022-12-11T14:14:26.975Z,-1.60
2022-12-11T14:17:13.501Z,-1.60
2022-12-11T14:20:00.053Z,-1.60
2022-12-11T14:22:46.584Z,-1.60
2022-12-11T14:25:33.092Z,-1.60
2022-12-11T14:28:19.599Z,-1.70
2022-12-11T14:31:06.144Z,-1.70
2022-12-11T14:33:52.659Z,-1.80
2022-12-11T14:36:39.213Z,-1.80
2022-12-11T14:39:25.686Z,-1.80
2022-12-11T14:42:12.248Z,-1.90
2022-12-11T14:44:58.798Z,-1.90
2022-12-11T14:47:45.352Z,-1.90
2022-12-11T14:50:31.879Z,-2.00
2022-12-11T14:53:18.430Z,-2.00
2022-12-11T14:56:04.943Z,-2.00
2022-12-11T14:58:51.476Z,-2.10
2022-12-11T15:01:37.997Z,-2.10
2022-12-11T15:04:24.555Z,-2.20
2022-12-11T15:07:11.054Z,-2.20
2022-12-11T15:09:57.702Z,-2.20
2022-12-11T15:12:44.215Z,-2.30
2022-12-11T15:15:30.760Z,-2.40
2022-12-11T15:18:19.956Z,-2.30
2022-12-11T15:21:06.511Z,-2.40
2022-12-11T15:23:53.022Z,-2.40
2022-12-11T15:26:39.544Z,-2.40
2022-12-11T15:29:26.055Z,-2.40
2022-12-11T15:32:12.581Z,-2.50
2022-12-11T15:34:59.100Z,-2.50
2022-12-11T15:37:45.648Z,-2.50
2022-12-11T15:40:32.241Z,-2.50
2022-12-11T15:43:18.791Z,-2.50
2022-12-11T15:46:05.359Z,-2.50
2022-12-11T15:48:51.918Z,-2.50
2022-12-11T15:51:42.666Z,-2.50
2022-12-11T15:54:29.778Z,-2.50
2022-12-11T15:57:16.275Z,-2.60
2022-12-11T16:00:02.804Z,-2.60
2022-12-11T16:02:49.405Z,-2.60
2022-12-11T16:05:35.970Z,-2.60
2022-12-11T16:08:22.510Z,-2.70
2022-12-11T16:11:09.073Z,-2.70
2022-12-11T16:13:55.618Z,-2.70
2022-12-11T16:16:42.249Z,-2.80
2022-12-11T16:19:28.783Z,-2.80
2022-12-11T16:22:15.292Z,-2.80
2022-12-11T16:25:01.780Z,-2.80
2022-12-11T16:27:48.291Z,-2.90
2022-12-11T16:30:34.908Z,-2.90
2022-12-11T16:33:21.466Z,-2.90
2022-12-11T16:36:08.065Z,-3.00
2022-12-11T16:38:54.589Z,-3.00
2022-12-11T16:41:41.114Z,-3.10
2022-12-11T16:44:27.922Z,-3.10
2022-12-11T16:47:14.471Z,-3.20
2022-12-11T16:50:01.015Z,-3.30
2022-12-11T16:52:47.491Z,-3.40
2022-12-11T16:55:33.996Z,-3.50
2022-12-11T16:58:20.527Z,-3.50
2022-12-11T17:01:07.133Z,-3.50
2022-12-11T17:03:53.674Z,-3.50
2022-12-11T17:06:40.232Z,-3.40
2022-12-11T17:09:26.753Z,-3.40
2022-12-11T17:12:13.329Z,-3.40
2022-12-11T17:14:59.797Z,-3.40
2022-12-11T17:17:46.341Z,-3.40
2022-12-11T17:20:32.862Z,-3.50
2022-12-11T17:23:19.384Z,-3.50
2022-12-11T17:26:05.906Z,-3.50
2022-12-11T17:28:52.439Z,-3.50
2022-12-11T17:31:38.957Z,-3.40
2022-12-11T17:34:25.489Z,-3.40
2022-12-11T17:37:13.034Z,-3.30
2022-12-11T17:39:59.567Z,-3.30
2022-12-11T17:42:46.088Z,-3.30
2022-12-11T17:45:32.644Z,-3.30
2022-12-11T17:48:19.172Z,-3.30
2022-12-11T17:51:05.713Z,-3.40
2022-12-11T17:53:52.234Z,-3.40
2022-12-11T17:56:38.755Z,-3.30
2022-12-11T17:59:25.274Z,-3.30
2022-12-11T18:02:11.956Z,-3.30
2022-12-11T18:04:58.571Z,-3.30
2022-12-11T18:07:45.202Z,-3.30
2022-12-11T18:10:31.805Z,-3.30
2022-12-11T18:13:18.377Z,-3.20
2022-12-11T18:16:04.900Z,-3.30
2022-12-11T18:18:51.527Z,-3.20
2022-12-11T18:21:38.036Z,-3.30
2022-12-11T18:24:24.595Z,-3.30
2022-12-11T18:27:11.119Z,-3.30
2022-12-11T18:29:57.656Z,-3.30
2022-12-11T18:32:44.177Z,-3.30
2022-12-11T18:35:30.741Z,-3.30
2022-12-11T18:38:17.294Z,-3.30
2022-12-11T18:41:03.841Z,-3.20
2022-12-11T18:43:50.375Z,-3.20
2022-12-11T18:46:36.983Z,-3.20
2022-12-11T18:49:23.579Z,-3.20
2022-12-11T18:52:10.120Z,-3.20
2022-12-11T18:54:56.666Z,-3.30
2022-12-11T18:57:43.213Z,-3.30
2022-12-11T19:00:29.747Z,-3.30
2022-12-11T19:03:16.299Z,-3.30
2022-12-11T19:06:02.807Z,-3.30
2022-12-11T19:08:49.304Z,-3.30
2022-12-11T19:11:35.825Z,-3.30
2022-12-11T19:14:22.380Z,-3.30
2022-12-11T19:17:08.899Z,-3.30
2022-12-11T19:19:55.447Z,-3.30
2022-12-11T19:22:42.061Z,-3.30
2022-12-11T19:25:28.639Z,-3.30
2022-12-11T19:28:15.192Z,-3.30
2022-12-11T19:31:01.753Z,-3.30
2022-12-11T19:33:48.325Z,-3.30
2022-12-11T19:36:34.876Z,-3.20
2022-12-11T19:39:21.408Z,-3.20
2022-12-11T19:42:08.000Z,-3.20
2022-12-11T19:44:54.472Z,-3.20
2022-12-11T19:47:41.110Z,-3.20
2022-12-11T19:50:27.630Z,-3.20
2022-12-11T19:53:14.439Z,-3.30
2022-12-11T19:56:00.981Z,-3.20
2022-12-11T19:58:47.533Z,-3.20
2022-12-11T20:01:34.048Z,-3.30
2022-12-11T20:04:20.814Z,-3.20
2022-12-11T20:07:07.332Z,-3.30
2022-12-11T20:09:53.872Z,-3.30
2022-12-11T20:12:40.389Z,-3.30
2022-12-11T20:15:26.927Z,-3.30
2022-12-11T20:18:18.350Z,-3.40
2022-12-11T20:21:05.352Z,-3.40
2022-12-11T20:23:51.863Z,-3.40
2022-12-11T20:26:38.414Z,-3.50
2022-12-11T20:29:24.919Z,-3.50
2022-12-11T20:32:11.700Z,-3.60
2022-12-11T20:34:58.283Z,-3.60
2022-12-11T20:37:44.820Z,-3.60
2022-12-11T20:40:31.323Z,-3.60
2022-12-11T20:43:17.863Z,-3.60
2022-12-11T20:46:04.482Z,-3.60
2022-12-11T20:48:51.139Z,-3.50
2022-12-11T20:51:37.672Z,-3.50
2022-12-11T20:54:24.233Z,-3.60
2022-12-11T20:57:10.747Z,-3.60
2022-12-11T20:59:57.293Z,-3.60
2022-12-11T21:02:43.803Z,-3.50
2022-12-11T21:05:30.350Z,-3.50
2022-12-11T21:08:16.939Z,-3.60
2022-12-11T21:11:03.537Z,-3.60
2022-12-11T21:13:50.048Z,-3.70
2022-12-11T21:16:36.692Z,-3.80
2022-12-11T21:19:23.273Z,-3.90
2022-12-11T21:22:09.844Z,-3.90
2022-12-11T21:24:56.352Z,-4.00
2022-12-11T21:27:42.833Z,-4.10
2022-12-11T21:30:29.371Z,-4.20
2022-12-11T21:33:15.889Z,-4.30
2022-12-11T21:36:02.422Z,-4.30
2022-12-11T21:38:48.954Z,-4.40
2022-12-11T21:41:35.464Z,-4.50
2022-12-11T21:47:28.504Z,-4.70
2022-12-11T21:50:15.017Z,-4.80
2022-12-11T21:53:01.531Z,-4.80
2022-12-11T21:55:48.076Z,-4.80
2022-12-11T21:58:34.580Z,-4.90
2022-12-11T22:01:21.225Z,-4.80
2022-12-11T22:04:07.780Z,-4.80
2022-12-11T22:06:54.327Z,-4.80
2022-12-11T22:09:40.795Z,-4.70
2022-12-11T22:12:27.341Z,-4.70
2022-12-11T22:15:14.037Z,-4.70
2022-12-11T22:18:01.836Z,-4.70
2022-12-11T22:20:48.379Z,-4.50
2022-12-11T22:23:34.853Z,-4.50
2022-12-11T22:26:21.387Z,-4.50
2022-12-11T22:29:07.912Z,-4.40
2022-12-11T22:31:54.461Z,-4.40
2022-12-11T22:34:40.941Z,-4.30
2022-12-11T22:37:27.494Z,-4.30
2022-12-11T22:40:14.014Z,-4.30
2022-12-11T22:43:00.522Z,-4.20
2022-12-11T22:45:47.150Z,-4.20
2022-12-11T22:48:33.725Z,-4.20
2022-12-11T22:51:20.242Z,-4.10
2022-12-11T22:54:06.780Z,-4.10
2022-12-11T22:56:53.296Z,-4.10
2022-12-11T22:59:39.790Z,-4.00
2022-12-11T23:02:26.339Z,-4.10
2022-12-11T23:05:13.138Z,-4.10
2022-12-11T23:08:00.009Z,-4.00
2022-12-11T23:10:46.663Z,-4.00
2022-12-11T23:13:33.171Z,-4.00
2022-12-11T23:16:19.754Z,-4.00
2022-12-11T23:19:06.284Z,-4.00
2022-12-11T23:21:52.825Z,-3.90
2022-12-11T23:24:39.339Z,-4.00
2022-12-11T23:27:25.877Z,-4.00
2022-12-11T23:30:12.390Z,-4.00
2022-12-11T23:32:58.943Z,-4.00
2022-12-11T23:35:45.458Z,-4.00
2022-12-11T23:38:32.012Z,-4.00
2022-12-11T23:41:19.648Z,-4.00
2022-12-11T23:44:06.197Z,-3.90
2022-12-11T23:46:52.724Z,-3.90
2022-12-11T23:49:39.235Z,-3.80
2022-12-11T23:52:25.785Z,-3.80
2022-12-11T23:55:12.425Z,-3.80
2022-12-11T23:57:59.105Z,-3.80
